Time;durP1;ratioP1;P1;durP2;ratioP2;P2;SDS_P1;SDS_P2;PMS_P1;PMS_P2;Temp;Humidity;BMP_temperature;BMP_pressure;BME280_temperature;BME280_humidity;BME280_pressure;Samples;Min_cycle;Max_cycle;Signal;HPM_P1;HPM_P2
2024/04/07 00:01:33;;;;;;;253.47;97.93;;;;;;;;;;5013736;28;20459;-44
2024/04/07 00:03:59;;;;;;;255.57;100.23;;;;;;;;;;5013671;28;20424;-44
2024/04/07 00:06:27;;;;;;;252.40;98.83;;;;;;;;;;5013370;28;20407;-44
2024/04/07 00:08:53;;;;;;;251.13;94.70;;;;;;;;;;5013434;28;20814;-43
2024/04/07 00:11:19;;;;;;;254.37;98.67;;;;;;;;;;5013440;28;20418;-43
2024/04/07 00:13:45;;;;;;;251.10;95.07;;;;;;;;;;5013192;28;20942;-43
2024/04/07 00:16:11;;;;;;;254.50;102.33;;;;;;;;;;5013204;28;20476;-43
2024/04/07 00:18:38;;;;;;;252.90;96.40;;;;;;;;;;5013214;28;20532;-43
2024/04/07 00:21:04;;;;;;;251.80;96.47;;;;;;;;;;5013147;28;20414;-43
2024/04/07 00:23:31;;;;;;;253.30;99.30;;;;;;;;;;5013196;28;20431;-43
2024/04/07 00:25:57;;;;;;;255.17;100.03;;;;;;;;;;5012561;28;20421;-43
2024/04/07 00:28:23;;;;;;;251.10;94.10;;;;;;;;;;5012980;28;20423;-43
2024/04/07 00:30:49;;;;;;;250.90;94.10;;;;;;;;;;5013084;28;20964;-43
2024/04/07 00:33:16;;;;;;;250.47;93.93;;;;;;;;;;5013084;28;20440;-43
2024/04/07 00:35:42;;;;;;;250.50;93.67;;;;;;;;;;5012735;28;20445;-43
2024/04/07 00:38:08;;;;;;;252.40;98.07;;;;;;;;;;5012881;28;20819;-43
2024/04/07 00:40:34;;;;;;;259.90;105.60;;;;;;;;;;5012496;28;20447;-43
2024/04/07 00:43:00;;;;;;;256.97;102.97;;;;;;;;;;5012579;28;20496;-43
2024/04/07 00:45:26;;;;;;;256.20;103.23;;;;;;;;;;5012484;28;20408;-43
2024/04/07 00:47:52;;;;;;;252.27;96.23;;;;;;;;;;5013567;28;20916;-43
2024/04/07 00:50:19;;;;;;;250.90;94.43;;;;;;;;;;5012841;28;20425;-43
2024/04/07 00:52:45;;;;;;;253.67;96.13;;;;;;;;;;5012807;28;20442;-43
2024/04/07 00:55:11;;;;;;;256.87;96.73;;;;;;;;;;5012415;28;20459;-43
2024/04/07 00:57:38;;;;;;;252.00;95.23;;;;;;;;;;5012586;28;20877;-43
2024/04/07 01:00:04;;;;;;;255.33;99.60;;;;;;;;;;5012378;28;20514;-43
2024/04/07 01:02:30;;;;;;;251.70;95.97;;;;;;;;;;5012234;28;20423;-43
2024/04/07 01:04:56;;;;;;;257.90;102.87;;;;;;;;;;5011641;28;20405;-43
2024/04/07 01:07:22;;;;;;;251.93;94.83;;;;;;;;;;5012226;28;20415;-43
2024/04/07 01:09:48;;;;;;;253.57;94.90;;;;;;;;;;5012144;28;20449;-43
2024/04/07 01:12:15;;;;;;;248.73;92.27;;;;;;;;;;5012315;28;20431;-43
2024/04/07 01:14:41;;;;;;;256.23;101.30;;;;;;;;;;5012434;28;20421;-43
2024/04/07 01:17:07;;;;;;;250.87;93.77;;;;;;;;;;5012045;28;20457;-43
2024/04/07 01:19:33;;;;;;;252.07;95.17;;;;;;;;;;5012406;28;20446;-43
2024/04/07 01:21:59;;;;;;;250.40;91.50;;;;;;;;;;5011911;28;20435;-43
2024/04/07 01:24:25;;;;;;;254.03;97.77;;;;;;;;;;5011972;28;20494;-43
2024/04/07 01:26:51;;;;;;;250.57;92.03;;;;;;;;;;5011610;28;20484;-43
2024/04/07 01:29:17;;;;;;;251.57;94.80;;;;;;;;;;5011901;28;20421;-43
2024/04/07 01:31:43;;;;;;;249.30;91.13;;;;;;;;;;5012017;28;20491;-43
2024/04/07 01:34:09;;;;;;;251.00;95.60;;;;;;;;;;5011919;28;20916;-43
2024/04/07 01:36:35;;;;;;;254.93;100.17;;;;;;;;;;5011732;28;20928;-43
2024/04/07 01:39:01;;;;;;;254.40;98.43;;;;;;;;;;5011703;28;20427;-43
2024/04/07 01:41:27;;;;;;;250.17;94.00;;;;;;;;;;5011633;28;20518;-43
2024/04/07 01:43:53;;;;;;;252.20;96.30;;;;;;;;;;5010881;28;20913;-43
2024/04/07 01:46:21;;;;;;;249.10;91.37;;;;;;;;;;5011294;28;20439;-43
2024/04/07 01:48:47;;;;;;;250.60;94.47;;;;;;;;;;5011583;28;20768;-43
2024/04/07 01:51:13;;;;;;;251.77;97.10;;;;;;;;;;5011458;28;20423;-43
2024/04/07 01:53:40;;;;;;;254.37;100.27;;;;;;;;;;5010878;28;20411;-43
2024/04/07 01:56:06;;;;;;;249.87;92.47;;;;;;;;;;5011306;28;20742;-43
2024/04/07 01:58:32;;;;;;;249.80;94.43;;;;;;;;;;5011610;28;20462;-43
2024/04/07 02:00:58;;;;;;;253.53;96.17;;;;;;;;;;5011467;28;20466;-43
2024/04/07 02:03:24;;;;;;;253.13;95.70;;;;;;;;;;5011438;28;20434;-43
2024/04/07 02:05:50;;;;;;;252.77;97.23;;;;;;;;;;5010877;28;20769;-43
2024/04/07 02:08:16;;;;;;;249.70;93.03;;;;;;;;;;5011235;28;20502;-43
2024/04/07 02:10:49;;;;;;;246.87;90.17;;;;;;;;;;5011274;28;20430;-43
2024/04/07 02:13:15;;;;;;;249.27;93.03;;;;;;;;;;5011447;28;20467;-43
2024/04/07 02:15:41;;;;;;;251.63;96.43;;;;;;;;;;5010997;28;20450;-43
2024/04/07 02:18:07;;;;;;;251.67;96.27;;;;;;;;;;5011137;28;20723;-43
2024/04/07 02:20:34;;;;;;;249.43;92.93;;;;;;;;;;5011203;28;20427;-43
2024/04/07 02:23:00;;;;;;;250.57;92.47;;;;;;;;;;5011117;28;20998;-43
2024/04/07 02:25:26;;;;;;;247.97;90.77;;;;;;;;;;5011119;28;20482;-43
2024/04/07 02:27:52;;;;;;;251.50;93.53;;;;;;;;;;5010690;28;20597;-43
2024/04/07 02:30:19;;;;;;;254.23;97.40;;;;;;;;;;5011030;28;20421;-43
2024/04/07 02:32:44;;;;;;;252.73;95.70;;;;;;;;;;5010910;28;20496;-43
2024/04/07 02:35:12;;;;;;;257.00;100.00;;;;;;;;;;5008305;28;21147;-43
2024/04/07 02:37:38;;;;;;;249.77;91.00;;;;;;;;;;5010434;28;20544;-43
2024/04/07 02:40:08;;;;;;;255.73;100.77;;;;;;;;;;5010707;28;20415;-43
2024/04/07 02:42:34;;;;;;;254.67;98.47;;;;;;;;;;5010739;28;20484;-43
2024/04/07 02:48:17;;;;;;;254.53;96.23;;;;;;;;;;5010519;28;20470;-43
2024/04/07 02:50:36;;;;;;;252.33;93.73;;;;;;;;;;5009721;28;20417;-43
2024/04/07 02:53:03;;;;;;;256.40;100.03;;;;;;;;;;5010533;28;20818;-43
2024/04/07 02:55:29;;;;;;;255.87;98.47;;;;;;;;;;5010534;28;20441;-43
2024/04/07 02:57:55;;;;;;;252.70;91.47;;;;;;;;;;5010775;28;20461;-43
2024/04/07 03:00:21;;;;;;;253.17;93.77;;;;;;;;;;5010543;28;20938;-43
2024/04/07 03:02:47;;;;;;;257.27;102.90;;;;;;;;;;5010513;28;20466;-43
2024/04/07 03:05:16;;;;;;;256.50;96.30;;;;;;;;;;5013848;28;20414;-43
2024/04/07 03:07:42;;;;;;;252.63;92.47;;;;;;;;;;5014298;28;20826;-43
2024/04/07 03:10:08;;;;;;;253.57;92.93;;;;;;;;;;5014755;28;20428;-43
2024/04/07 03:12:34;;;;;;;253.93;96.10;;;;;;;;;;5014252;28;20438;-43
2024/04/07 03:15:03;;;;;;;255.30;94.40;;;;;;;;;;5013992;28;20418;-43
2024/04/07 03:17:29;;;;;;;250.40;88.97;;;;;;;;;;5014074;28;20469;-43
2024/04/07 03:19:55;;;;;;;256.17;95.97;;;;;;;;;;5014412;28;20422;-43
2024/04/07 03:22:21;;;;;;;257.17;96.87;;;;;;;;;;5014086;28;20434;-43
2024/04/07 03:24:47;;;;;;;252.27;88.57;;;;;;;;;;5014113;28;20787;-43
2024/04/07 03:27:14;;;;;;;250.20;86.80;;;;;;;;;;5013777;28;20969;-43
2024/04/07 03:29:41;;;;;;;250.03;87.63;;;;;;;;;;5014093;28;20428;-43
2024/04/07 03:32:07;;;;;;;254.50;95.23;;;;;;;;;;5013487;28;20936;-43
2024/04/07 03:34:33;;;;;;;252.03;88.70;;;;;;;;;;5014031;28;20420;-43
2024/04/07 03:36:59;;;;;;;252.87;89.83;;;;;;;;;;5013326;28;20534;-43
2024/04/07 03:39:25;;;;;;;254.90;93.53;;;;;;;;;;5013982;28;20472;-43
2024/04/07 03:41:51;;;;;;;257.13;94.47;;;;;;;;;;5013349;28;20452;-43
2024/04/07 03:44:18;;;;;;;252.70;87.47;;;;;;;;;;5013262;28;20499;-43
2024/04/07 03:46:46;;;;;;;256.53;95.07;;;;;;;;;;5013410;28;20429;-43
2024/04/07 03:49:12;;;;;;;251.77;87.03;;;;;;;;;;5007344;28;20763;-43
2024/04/07 03:51:38;;;;;;;257.43;95.37;;;;;;;;;;5013540;28;20462;-43
2024/04/07 03:54:04;;;;;;;254.50;96.97;;;;;;;;;;5013627;28;20924;-43
2024/04/07 03:56:30;;;;;;;256.70;94.60;;;;;;;;;;5013031;28;20450;-43
2024/04/07 03:58:56;;;;;;;256.20;95.73;;;;;;;;;;5013271;28;20425;-43
2024/04/07 04:01:22;;;;;;;250.90;85.97;;;;;;;;;;5013403;28;20413;-43
2024/04/07 04:03:48;;;;;;;253.20;89.60;;;;;;;;;;5013272;28;20901;-43
2024/04/07 04:06:14;;;;;;;250.57;87.43;;;;;;;;;;5013165;28;20407;-43
2024/04/07 04:08:40;;;;;;;253.50;90.10;;;;;;;;;;5013275;28;20679;-43
2024/04/07 04:11:08;;;;;;;251.83;88.63;;;;;;;;;;5013273;28;20506;-43
2024/04/07 04:13:37;;;;;;;254.57;92.03;;;;;;;;;;5013317;28;20448;-43
2024/04/07 04:16:03;;;;;;;254.87;92.67;;;;;;;;;;5011475;28;20416;-43
2024/04/07 04:18:29;;;;;;;253.87;91.23;;;;;;;;;;5013090;28;20828;-43
2024/04/07 04:20:55;;;;;;;251.67;87.07;;;;;;;;;;5012984;28;20919;-43
2024/04/07 04:23:21;;;;;;;253.73;93.47;;;;;;;;;;5012786;28;20437;-43
2024/04/07 04:25:51;;;;;;;249.53;85.33;;;;;;;;;;5012506;28;20416;-43
2024/04/07 04:28:18;;;;;;;253.40;90.37;;;;;;;;;;5012859;28;20778;-43
2024/04/07 04:30:51;;;;;;;252.03;89.97;;;;;;;;;;5012854;28;20434;-43
2024/04/07 04:33:17;;;;;;;254.37;92.33;;;;;;;;;;5009153;28;20430;-43
2024/04/07 04:35:43;;;;;;;254.80;91.83;;;;;;;;;;5011675;28;20474;-43
2024/04/07 04:38:09;;;;;;;252.87;90.87;;;;;;;;;;5012655;28;20537;-43
2024/04/07 04:40:35;;;;;;;250.17;88.07;;;;;;;;;;5013189;28;20490;-43
2024/04/07 04:43:00;;;;;;;252.10;87.43;;;;;;;;;;5012537;28;20454;-43
2024/04/07 04:45:26;;;;;;;255.77;97.63;;;;;;;;;;5012651;28;20415;-43
2024/04/07 04:47:52;;;;;;;252.37;90.53;;;;;;;;;;5013024;28;20506;-43
2024/04/07 04:50:18;;;;;;;251.87;90.00;;;;;;;;;;5012787;28;20420;-43
2024/04/07 04:52:44;;;;;;;250.63;88.37;;;;;;;;;;5012470;28;20437;-43
2024/04/07 04:55:10;;;;;;;256.47;91.83;;;;;;;;;;5012528;28;20438;-43
2024/04/07 04:57:36;;;;;;;252.37;87.37;;;;;;;;;;5012793;28;20513;-43
2024/04/07 05:00:02;;;;;;;248.03;83.10;;;;;;;;;;5012623;28;20422;-43
2024/04/07 05:02:28;;;;;;;255.07;89.57;;;;;;;;;;5012401;28;20436;-43
2024/04/07 05:04:54;;;;;;;252.33;87.10;;;;;;;;;;5012390;28;20418;-43
2024/04/07 05:07:20;;;;;;;252.33;88.43;;;;;;;;;;5012189;28;20795;-43
2024/04/07 05:09:47;;;;;;;251.37;86.13;;;;;;;;;;5012291;28;20407;-43
2024/04/07 05:12:13;;;;;;;251.93;89.30;;;;;;;;;;5012323;28;20865;-43
2024/04/07 05:14:39;;;;;;;248.17;86.63;;;;;;;;;;5012239;28;20474;-43
2024/04/07 05:17:05;;;;;;;254.77;90.03;;;;;;;;;;5011998;28;20868;-43
2024/04/07 05:19:31;;;;;;;251.17;88.90;;;;;;;;;;5012283;28;20408;-43
2024/04/07 05:21:57;;;;;;;251.50;86.60;;;;;;;;;;5011968;28;20494;-43
2024/04/07 05:24:23;;;;;;;250.17;86.23;;;;;;;;;;5012005;28;20410;-43
2024/04/07 05:26:49;;;;;;;252.70;90.70;;;;;;;;;;5011563;28;20404;-43
2024/04/07 05:29:15;;;;;;;246.60;82.63;;;;;;;;;;5011496;28;20516;-43
2024/04/07 05:31:42;;;;;;;252.90;91.50;;;;;;;;;;5011953;28;20429;-43
2024/04/07 05:34:07;;;;;;;249.70;86.63;;;;;;;;;;5011872;28;20462;-43
2024/04/07 05:36:33;;;;;;;253.73;91.80;;;;;;;;;;5011467;28;20408;-43
2024/04/07 05:38:59;;;;;;;253.07;92.13;;;;;;;;;;5011970;28;20415;-43
2024/04/07 05:41:25;;;;;;;252.17;88.53;;;;;;;;;;5012118;28;20415;-43
2024/04/07 05:43:51;;;;;;;251.77;87.47;;;;;;;;;;5011975;28;20420;-43
2024/04/07 05:46:17;;;;;;;251.97;89.37;;;;;;;;;;5011575;28;20932;-43
2024/04/07 05:48:43;;;;;;;246.60;83.80;;;;;;;;;;5011605;28;20509;-43
2024/04/07 05:51:13;;;;;;;249.47;85.37;;;;;;;;;;5011354;28;20923;-42
2024/04/07 05:53:39;;;;;;;252.93;91.17;;;;;;;;;;5011536;28;20418;-42
2024/04/07 05:56:05;;;;;;;247.30;83.30;;;;;;;;;;5011568;28;20428;-43
2024/04/07 05:58:31;;;;;;;253.07;93.40;;;;;;;;;;5011407;28;20456;-43
2024/04/07 06:00:59;;;;;;;248.93;84.87;;;;;;;;;;5011896;28;20943;-43
2024/04/07 06:03:25;;;;;;;247.90;84.23;;;;;;;;;;5010760;28;20452;-43
2024/04/07 06:05:51;;;;;;;253.90;91.03;;;;;;;;;;5011205;28;20407;-43
2024/04/07 06:08:17;;;;;;;252.50;90.03;;;;;;;;;;5011251;28;20491;-42
2024/04/07 06:10:43;;;;;;;254.70;92.07;;;;;;;;;;5011381;28;20522;-42
2024/04/07 06:13:09;;;;;;;245.23;81.20;;;;;;;;;;5011310;28;20431;-43
2024/04/07 06:15:35;;;;;;;247.30;84.93;;;;;;;;;;5010949;28;20774;-42
2024/04/07 06:18:01;;;;;;;249.77;86.93;;;;;;;;;;5011085;28;20455;-43
2024/04/07 06:20:27;;;;;;;251.23;90.63;;;;;;;;;;5011176;28;20418;-43
2024/04/07 06:22:53;;;;;;;247.70;85.47;;;;;;;;;;5011079;28;20480;-42
2024/04/07 06:25:19;;;;;;;250.20;86.87;;;;;;;;;;5011137;28;20477;-42
2024/04/07 06:27:46;;;;;;;248.17;83.27;;;;;;;;;;5011152;28;20497;-45
2024/04/07 06:30:12;;;;;;;251.10;90.80;;;;;;;;;;5011089;28;20417;-42
2024/04/07 06:32:39;;;;;;;249.13;87.03;;;;;;;;;;5010929;28;20833;-43
2024/04/07 06:35:04;;;;;;;260.63;94.43;;;;;;;;;;5010819;28;20483;-43
2024/04/07 06:37:30;;;;;;;252.57;92.53;;;;;;;;;;5010959;28;20459;-42
2024/04/07 06:39:56;;;;;;;251.03;89.13;;;;;;;;;;5010754;28;20423;-43
2024/04/07 06:42:30;;;;;;;249.00;87.50;;;;;;;;;;5010997;28;20454;-42
2024/04/07 06:44:56;;;;;;;250.47;88.23;;;;;;;;;;5010900;28;20423;-42
2024/04/07 06:47:23;;;;;;;255.23;93.97;;;;;;;;;;5010967;28;20435;-42
2024/04/07 06:49:53;;;;;;;254.07;92.57;;;;;;;;;;5008512;28;20440;-42
2024/04/07 06:52:22;;;;;;;250.93;87.77;;;;;;;;;;5011023;28;20437;-43
2024/04/07 06:54:48;;;;;;;258.00;95.23;;;;;;;;;;5010019;28;20778;-42
2024/04/07 06:57:15;;;;;;;251.57;87.80;;;;;;;;;;5010471;28;21020;-42
2024/04/07 06:59:41;;;;;;;249.50;87.87;;;;;;;;;;5010780;28;20416;-42
2024/04/07 07:02:07;;;;;;;255.87;93.97;;;;;;;;;;5012021;28;20797;-43
2024/04/07 07:04:33;;;;;;;254.77;95.97;;;;;;;;;;5010845;28;20422;-42
2024/04/07 07:06:59;;;;;;;255.63;95.37;;;;;;;;;;5010529;28;20900;-42
2024/04/07 07:09:25;;;;;;;252.03;93.73;;;;;;;;;;5008970;28;20528;-42
2024/04/07 07:11:51;;;;;;;250.87;88.90;;;;;;;;;;5010482;28;20435;-42
2024/04/07 07:14:17;;;;;;;250.73;90.63;;;;;;;;;;5010427;28;20423;-43
2024/04/07 07:16:43;;;;;;;254.13;91.87;;;;;;;;;;5010270;28;20437;-43
2024/04/07 07:19:09;;;;;;;253.83;93.83;;;;;;;;;;5015140;28;20437;-42
2024/04/07 07:21:35;;;;;;;256.90;99.20;;;;;;;;;;5010373;28;20438;-42
2024/04/07 07:24:01;;;;;;;253.80;92.40;;;;;;;;;;5010325;28;20504;-42
2024/04/07 07:26:27;;;;;;;252.03;92.70;;;;;;;;;;5010043;28;20422;-42
2024/04/07 07:28:53;;;;;;;251.40;88.67;;;;;;;;;;5010111;28;20432;-43
2024/04/07 07:31:20;;;;;;;253.90;94.03;;;;;;;;;;5010322;28;20565;-44
2024/04/07 07:33:46;;;;;;;256.87;96.77;;;;;;;;;;5010394;28;20508;-42
2024/04/07 07:36:12;;;;;;;251.40;91.07;;;;;;;;;;5010107;28;20420;-42
2024/04/07 07:38:38;;;;;;;254.67;96.73;;;;;;;;;;5010254;28;20465;-42
2024/04/07 07:41:04;;;;;;;254.13;98.23;;;;;;;;;;5010237;28;20565;-42
2024/04/07 07:43:30;;;;;;;255.07;96.47;;;;;;;;;;5009488;28;20517;-42
2024/04/07 07:45:57;;;;;;;251.37;91.10;;;;;;;;;;5009696;28;20512;-43
2024/04/07 07:48:23;;;;;;;251.43;91.97;;;;;;;;;;5011607;28;20430;-42
2024/04/07 07:50:48;;;;;;;253.07;90.17;;;;;;;;;;5010623;28;20835;-43
2024/04/07 07:53:15;;;;;;;254.83;95.10;;;;;;;;;;5013791;28;20438;-42
2024/04/07 07:55:40;;;;;;;255.67;92.53;;;;;;;;;;5012076;28;20421;-42
2024/04/07 07:58:06;;;;;;;260.50;99.90;;;;;;;;;;5012025;28;20787;-42
2024/04/07 08:00:32;;;;;;;253.67;92.97;;;;;;;;;;5013313;28;20837;-42
2024/04/07 08:02:59;;;;;;;254.67;94.97;;;;;;;;;;5013378;28;20823;-41
2024/04/07 08:05:25;;;;;;;252.63;91.03;;;;;;;;;;5012079;28;20418;-43
2024/04/07 08:07:51;;;;;;;253.20;91.63;;;;;;;;;;5013269;28;20565;-43
2024/04/07 08:10:17;;;;;;;254.53;96.50;;;;;;;;;;5013167;28;20510;-44
2024/04/07 08:12:44;;;;;;;252.07;90.60;;;;;;;;;;5013068;28;20929;-44
2024/04/07 08:15:11;;;;;;;254.83;94.70;;;;;;;;;;5012680;28;20448;-43
2024/04/07 08:17:37;;;;;;;255.77;98.03;;;;;;;;;;5011828;28;20469;-43
2024/04/07 08:20:03;;;;;;;257.30;100.10;;;;;;;;;;5013311;28;20422;-42
2024/04/07 08:22:29;;;;;;;257.27;102.20;;;;;;;;;;5013146;28;20508;-42
2024/04/07 08:24:55;;;;;;;254.77;94.10;;;;;;;;;;5013117;28;20481;-43
2024/04/07 08:27:21;;;;;;;253.67;92.40;;;;;;;;;;5012835;28;20422;-43
2024/04/07 08:29:48;;;;;;;249.43;89.90;;;;;;;;;;5013259;28;20510;-43
2024/04/07 08:32:14;;;;;;;249.87;89.90;;;;;;;;;;5013231;28;20960;-43
2024/04/07 08:34:39;;;;;;;254.77;95.87;;;;;;;;;;5013277;28;20411;-43
2024/04/07 08:37:07;;;;;;;252.17;93.87;;;;;;;;;;5011706;28;20993;-43
2024/04/07 08:39:33;;;;;;;256.57;96.43;;;;;;;;;;5013408;28;20923;-42
2024/04/07 08:42:00;;;;;;;255.30;95.40;;;;;;;;;;5012658;28;20447;-42
2024/04/07 08:44:27;;;;;;;257.30;99.63;;;;;;;;;;5013088;28;20427;-43
2024/04/07 08:46:54;;;;;;;257.97;101.13;;;;;;;;;;5012570;28;20925;-42
2024/04/07 08:49:20;;;;;;;253.80;97.03;;;;;;;;;;5012987;28;20435;-43
2024/04/07 08:51:47;;;;;;;259.37;104.77;;;;;;;;;;5012741;28;20851;-43
2024/04/07 08:54:13;;;;;;;257.40;98.90;;;;;;;;;;5012618;28;20418;-42
2024/04/07 08:56:40;;;;;;;269.60;113.33;;;;;;;;;;5006592;28;20889;-43
2024/04/07 08:59:06;;;;;;;259.10;101.23;;;;;;;;;;5011714;28;20419;-42
2024/04/07 09:01:32;;;;;;;258.73;103.33;;;;;;;;;;5011690;28;20426;-43
2024/04/07 09:03:59;;;;;;;258.33;103.50;;;;;;;;;;5012241;28;20485;-43
2024/04/07 09:06:28;;;;;;;258.30;103.87;;;;;;;;;;5012332;28;20410;-44
2024/04/07 09:08:58;;;;;;;263.70;112.10;;;;;;;;;;5012422;28;20470;-43
2024/04/07 09:11:24;;;;;;;260.37;105.87;;;;;;;;;;5012657;28;20418;-44
2024/04/07 09:13:50;;;;;;;257.13;107.23;;;;;;;;;;5012382;28;20403;-43
2024/04/07 09:16:16;;;;;;;256.40;107.27;;;;;;;;;;5012289;28;20418;-44
2024/04/07 09:18:42;;;;;;;257.67;108.30;;;;;;;;;;5012257;28;20530;-43
2024/04/07 09:21:21;;;;;;;257.80;112.00;;;;;;;;;;5012491;28;20415;-43
2024/04/07 09:23:49;;;;;;;262.00;116.83;;;;;;;;;;5012210;28;20430;-43
2024/04/07 09:26:16;;;;;;;257.03;111.83;;;;;;;;;;5012035;28;20415;-43
2024/04/07 09:28:42;;;;;;;258.57;113.57;;;;;;;;;;5012150;28;20581;-43
2024/04/07 09:31:08;;;;;;;258.87;113.50;;;;;;;;;;5012089;28;20930;-44
2024/04/07 09:33:37;;;;;;;260.03;115.93;;;;;;;;;;5012072;28;20773;-43
2024/04/07 09:36:03;;;;;;;261.87;120.63;;;;;;;;;;5011708;28;20414;-43
2024/04/07 09:38:30;;;;;;;256.70;112.97;;;;;;;;;;5011888;28;20800;-43
2024/04/07 09:40:56;;;;;;;257.80;109.87;;;;;;;;;;5012118;28;20418;-42
2024/04/07 09:43:24;;;;;;;260.77;117.00;;;;;;;;;;5011942;28;20526;-43
2024/04/07 09:45:52;;;;;;;259.60;111.77;;;;;;;;;;5011861;28;20407;-43
2024/04/07 09:48:19;;;;;;;260.03;111.70;;;;;;;;;;5008590;28;20447;-43
2024/04/07 09:50:49;;;;;;;261.07;111.27;;;;;;;;;;5009705;28;20422;-45
2024/04/07 09:53:20;;;;;;;259.30;110.67;;;;;;;;;;5011577;28;20930;-42
2024/04/07 09:55:49;;;;;;;260.87;107.23;;;;;;;;;;5010061;28;20448;-43
2024/04/07 09:58:15;;;;;;;257.17;102.63;;;;;;;;;;5013830;28;20462;-43
2024/04/07 10:00:42;;;;;;;257.10;104.57;;;;;;;;;;5015638;28;20530;-42
2024/04/07 10:03:08;;;;;;;260.17;106.07;;;;;;;;;;5011277;28;20934;-43
2024/04/07 10:05:34;;;;;;;257.77;104.63;;;;;;;;;;5011482;28;20782;-43
2024/04/07 10:08:00;;;;;;;260.50;110.70;;;;;;;;;;5011328;28;20418;-43
2024/04/07 10:10:26;;;;;;;260.17;104.60;;;;;;;;;;5010926;28;20426;-44
2024/04/07 10:12:53;;;;;;;257.20;100.23;;;;;;;;;;5010358;28;21113;-42
2024/04/07 10:15:20;;;;;;;258.47;103.80;;;;;;;;;;5010488;28;20949;-43
2024/04/07 10:17:46;;;;;;;259.03;102.17;;;;;;;;;;5010122;28;20451;-43
2024/04/07 10:20:14;;;;;;;255.07;97.73;;;;;;;;;;5011173;28;20423;-42
2024/04/07 10:22:40;;;;;;;256.17;104.00;;;;;;;;;;5011096;28;20488;-43
2024/04/07 10:25:07;;;;;;;256.80;101.63;;;;;;;;;;5011017;28;20490;-42
2024/04/07 10:27:41;;;;;;;256.33;101.23;;;;;;;;;;5011436;28;20940;-42
2024/04/07 10:30:07;;;;;;;254.33;99.03;;;;;;;;;;5011309;28;20501;-43
2024/04/07 10:32:39;;;;;;;255.00;98.90;;;;;;;;;;5010953;28;20800;-42
2024/04/07 10:35:05;;;;;;;260.27;99.87;;;;;;;;;;5011037;28;20434;-43
2024/04/07 10:37:32;;;;;;;253.87;94.73;;;;;;;;;;5011262;28;20450;-42
2024/04/07 10:40:01;;;;;;;256.30;99.20;;;;;;;;;;5010898;28;20477;-43
2024/04/07 10:42:27;;;;;;;256.47;100.83;;;;;;;;;;5009661;28;20439;-44
2024/04/07 10:44:53;;;;;;;257.67;101.00;;;;;;;;;;5010955;28;20424;-42
2024/04/07 10:47:19;;;;;;;251.97;94.63;;;;;;;;;;5010952;28;20506;-42
2024/04/07 10:49:45;;;;;;;259.33;104.80;;;;;;;;;;5011361;28;20499;-45
2024/04/07 10:52:15;;;;;;;255.93;99.27;;;;;;;;;;5011282;28;20502;-42
2024/04/07 10:54:41;;;;;;;256.50;100.23;;;;;;;;;;5011017;28;20782;-43
2024/04/07 10:57:10;;;;;;;255.80;99.40;;;;;;;;;;5010657;28;20474;-44
2024/04/07 10:59:37;;;;;;;257.23;103.63;;;;;;;;;;5011036;28;20421;-42
2024/04/07 11:02:03;;;;;;;255.13;99.60;;;;;;;;;;5010910;28;20961;-42
2024/04/07 11:04:29;;;;;;;254.37;96.87;;;;;;;;;;5011078;28;20417;-43
2024/04/07 11:06:56;;;;;;;254.50;99.17;;;;;;;;;;5010515;28;20498;-42
2024/04/07 11:09:22;;;;;;;255.07;100.70;;;;;;;;;;5011101;28;20407;-42
2024/04/07 11:11:48;;;;;;;256.27;101.47;;;;;;;;;;5010859;28;20430;-42
2024/04/07 11:14:14;;;;;;;257.40;102.83;;;;;;;;;;5010995;28;20415;-42
2024/04/07 11:16:40;;;;;;;260.03;106.70;;;;;;;;;;5009185;28;20423;-42
2024/04/07 11:19:06;;;;;;;256.53;104.80;;;;;;;;;;5010793;28;20462;-42
2024/04/07 11:21:32;;;;;;;256.20;104.63;;;;;;;;;;5010696;28;20438;-43
2024/04/07 11:23:58;;;;;;;254.90;101.83;;;;;;;;;;5010737;28;20468;-43
2024/04/07 11:26:24;;;;;;;258.43;108.63;;;;;;;;;;5012159;28;20473;-43
2024/04/07 11:28:50;;;;;;;259.10;110.83;;;;;;;;;;5014405;28;20961;-43
2024/04/07 11:31:19;;;;;;;256.07;107.70;;;;;;;;;;5014254;28;20784;-42
2024/04/07 11:33:45;;;;;;;260.47;117.20;;;;;;;;;;5014602;28;20411;-43
2024/04/07 11:36:11;;;;;;;257.70;113.93;;;;;;;;;;5014184;28;20414;-43
2024/04/07 11:38:38;;;;;;;257.73;114.07;;;;;;;;;;5014228;28;20453;-44
2024/04/07 11:41:04;;;;;;;261.07;118.83;;;;;;;;;;5014137;28;20440;-43
2024/04/07 11:43:30;;;;;;;259.20;114.20;;;;;;;;;;5014120;28;20443;-44
2024/04/07 11:45:56;;;;;;;261.57;119.10;;;;;;;;;;5013480;28;21107;-44
2024/04/07 11:48:22;;;;;;;265.30;130.37;;;;;;;;;;5013770;28;20411;-43
2024/04/07 11:50:48;;;;;;;261.50;119.90;;;;;;;;;;5016369;28;20418;-43
2024/04/07 11:53:14;;;;;;;262.13;121.10;;;;;;;;;;5013787;28;20438;-43
2024/04/07 11:55:40;;;;;;;264.87;122.73;;;;;;;;;;5013116;28;20983;-43
2024/04/07 11:58:07;;;;;;;261.83;114.93;;;;;;;;;;5014061;28;20454;-43
2024/04/07 12:00:33;;;;;;;263.63;116.03;;;;;;;;;;5013567;28;20423;-43
2024/04/07 12:02:59;;;;;;;257.43;109.77;;;;;;;;;;5013331;28;20820;-43
2024/04/07 12:05:25;;;;;;;259.50;113.23;;;;;;;;;;5013498;28;20497;-43
2024/04/07 12:07:50;;;;;;;260.77;114.03;;;;;;;;;;5013406;28;20437;-43
2024/04/07 12:10:16;;;;;;;258.63;111.07;;;;;;;;;;5013443;28;20414;-43
2024/04/07 12:12:42;;;;;;;259.53;111.97;;;;;;;;;;5013423;28;20431;-43
2024/04/07 12:15:08;;;;;;;262.83;118.90;;;;;;;;;;5013303;28;20494;-43
2024/04/07 12:17:35;;;;;;;260.87;112.70;;;;;;;;;;5013436;28;20462;-43
2024/04/07 12:20:01;;;;;;;257.57;110.70;;;;;;;;;;5007576;28;20502;-43
2024/04/07 12:22:35;;;;;;;258.03;110.63;;;;;;;;;;5013224;28;20481;-43
2024/04/07 12:25:01;;;;;;;258.97;110.00;;;;;;;;;;5012772;28;20465;-43
2024/04/07 12:27:26;;;;;;;259.93;112.73;;;;;;;;;;5012837;28;20415;-43
2024/04/07 12:29:52;;;;;;;260.03;114.67;;;;;;;;;;5013020;28;20443;-43
2024/04/07 12:32:18;;;;;;;258.70;114.57;;;;;;;;;;5013087;28;20442;-43
2024/04/07 12:34:44;;;;;;;259.97;114.70;;;;;;;;;;5013090;28;20507;-43
2024/04/07 12:37:10;;;;;;;259.80;119.90;;;;;;;;;;5003844;28;20442;-43
2024/04/07 12:39:36;;;;;;;266.77;126.17;;;;;;;;;;5011667;28;20423;-43
2024/04/07 12:42:02;;;;;;;265.00;129.67;;;;;;;;;;5011258;28;20454;-43
2024/04/07 12:44:28;;;;;;;263.27;127.23;;;;;;;;;;5012842;28;20469;-43
2024/04/07 12:46:54;;;;;;;267.17;131.97;;;;;;;;;;5011454;28;20863;-43
2024/04/07 12:49:22;;;;;;;263.27;128.30;;;;;;;;;;5011167;28;20782;-43
2024/04/07 12:51:48;;;;;;;264.67;132.87;;;;;;;;;;5012369;28;20506;-43
2024/04/07 12:54:14;;;;;;;258.10;126.07;;;;;;;;;;5012918;28;20411;-43
2024/04/07 12:56:40;;;;;;;260.73;128.13;;;;;;;;;;5012429;28;20407;-43
2024/04/07 12:59:06;;;;;;;262.57;134.30;;;;;;;;;;5012361;28;20462;-44
2024/04/07 13:01:32;;;;;;;261.47;130.90;;;;;;;;;;5012619;28;20438;-43
2024/04/07 13:03:58;;;;;;;260.50;130.23;;;;;;;;;;5012655;28;20412;-43
2024/04/07 13:06:24;;;;;;;265.40;138.63;;;;;;;;;;5012707;28;20752;-43
2024/04/07 13:08:50;;;;;;;263.40;134.53;;;;;;;;;;5012287;28;20890;-44
2024/04/07 13:11:16;;;;;;;260.00;129.53;;;;;;;;;;5013472;28;20411;-44
2024/04/07 13:13:42;;;;;;;259.90;131.07;;;;;;;;;;5012270;28;20411;-44
2024/04/07 13:16:08;;;;;;;262.67;133.60;;;;;;;;;;5011959;28;20407;-44
2024/04/07 13:18:34;;;;;;;262.83;132.00;;;;;;;;;;5012546;28;20466;-44
2024/04/07 13:21:00;;;;;;;258.20;120.80;;;;;;;;;;5012079;28;20411;-44
2024/04/07 13:23:26;;;;;;;261.30;128.53;;;;;;;;;;5012107;28;20516;-44
2024/04/07 13:25:52;;;;;;;261.67;126.80;;;;;;;;;;5012054;28;20415;-44
2024/04/07 13:28:18;;;;;;;260.03;127.03;;;;;;;;;;5012104;28;20497;-44
2024/04/07 13:30:47;;;;;;;258.03;123.40;;;;;;;;;;5012102;28;20930;-43
2024/04/07 13:33:13;;;;;;;262.37;133.27;;;;;;;;;;5011965;28;20434;-44
2024/04/07 13:35:39;;;;;;;263.90;135.27;;;;;;;;;;5011625;28;20423;-44
2024/04/07 13:38:05;;;;;;;262.47;134.33;;;;;;;;;;5011793;28;20454;-44
2024/04/07 13:40:31;;;;;;;260.43;129.00;;;;;;;;;;5012149;28;20422;-43
2024/04/07 13:42:57;;;;;;;262.27;135.37;;;;;;;;;;5011568;28;20451;-44
2024/04/07 13:45:23;;;;;;;261.67;130.27;;;;;;;;;;5011050;28;20419;-43
2024/04/07 13:47:49;;;;;;;259.33;124.80;;;;;;;;;;5010800;28;20436;-44
2024/04/07 13:50:16;;;;;;;285.10;153.20;;;;;;;;;;5010895;28;20502;-44
2024/04/07 13:52:42;;;;;;;259.23;127.20;;;;;;;;;;5011593;28;20915;-44
2024/04/07 13:55:08;;;;;;;274.67;139.40;;;;;;;;;;5011060;28;20423;-43
2024/04/07 13:57:35;;;;;;;260.97;121.63;;;;;;;;;;5010434;28;20466;-44